Rhinelander, WI (54501)

9:03 PM CST on February 09, 2016 (GMT -0600)
Rhinelander CW5781 | | Change Station
CLOSE
Current Station
Personal Weather Station
Location: Rhinelander, WI
Elevation: 1520 ft
Nearby Weather Stations

Elev 1520 ft 45.64 °N, 89.39 °W | Updated 167 days ago

Snow
Snow
4 °F
Feels Like -14 °F
N
13
Wind Variable Wind from NNW
Gusts 21 mph

Today
High -- | Low -- °F
--% Chance of Precip.
Yesterday
High -- | Low -- °F
Precip. -- in
Pressure 30.01 in
Visibility 10.0 miles
Clouds Few 2600 ft
Overcast 3300 ft
Windchill -14 °F
Dew Point -2 °F
Humidity 75%
Rainfall in
Snow Depth Not available.
7:09 AM 5:14 PM
Waxing Crescent, 3% visible
METAR KRHI 100253Z AUTO 33008KT 10SM FEW026 OVC033 M13/M17 A2991 RMK AO2 SNE42 SLP163 P0000 60000 T11281172 58001
Pressure 30.01 in
Visibility 10.0 miles
Clouds Few 2600 ft
Overcast 3300 ft
Windchill -14 °F
Dew Point -2 °F
Humidity 75%
Rainfall in
Snow Depth Not available.
7:09 AM 5:14 PM
Waxing Crescent, 3% visible
METAR KRHI 100253Z AUTO 33008KT 10SM FEW026 OVC033 M13/M17 A2991 RMK AO2 SNE42 SLP163 P0000 60000 T11281172 58001

10-Day Weather Forecast

Almanac

Astronomy

Feb. 09, 2016 Rise Set
Actual Time
Civil Twilight
Nautical Twilight
Astronomical Twilight
Moon
Length of Visible Light
Length of Day
Tomorrow will be .
, % of the Moon is Illuminated

Today's Extremes

State Highs State Lows

Community

WunderPhotos

Upload Photos

1,891,787 photos uploaded!

WunderBlog® & News

Nearby

Air Quality

  Air Quality AQ Index Pollutant
Not available.

Snow Depth

Station Depth Elevation

Earthquake Activity

City Distance Mag. Time & Date
Minimum magnitude displayed is 2.5.

Coastal Water Temperatures

Place Temperature

Stations

Nearby Weather Stations

Station Location Temp. Windchill Dew Point Humidity Wind Precip. Elev Updated Type
                   

Watches & Warnings

There are currently no watches in effect.